Nefterudovoz-29m — UIMI — position and weather

sailwx.info

Track history (hours):
 
Tides and Currents Weather Stations Pressure Air Temp Water Temp Dewpoint Dewpoint Depression Visibility Wind Speed Wind Dir Waves Ship Positions

Nefterudovoz-29m

Last reported at 2015-Feb-28 00:32 UTC. Time now 2015-Feb-28 23:03 UTC.
Position N 46°35' E 031°26'.

Length 119 m; draft 2.5 m.

Type: Cargo ship. MMSI: 273345300.

Date/timePositionNaut miles runAvg speedWind from/ knotsBaromVisibWave heightAir tempDewpointWater temp
2015-Feb-28 00:32N 46°35' E 031°26'6 6.5
2015-Feb-27 23:33N 46°35' E 031°35'7 7.3
2015-Feb-27 22:33N 46°36' E 031°46'7 7.1
2015-Feb-27 21:33N 46°39' E 031°55'6 6.3
2015-Feb-27 20:33N 46°45' E 031°54'7 6.6
2015-Feb-27 19:34N 46°51' E 031°57'5 5.4
2015-Feb-27 18:33N 46°56' E 031°60'2 1.6
2015-Feb-27 17:33N 46°56' E 031°57'0 0.0
2015-Feb-27 16:33N 46°56' E 031°57'0 0.0
2015-Feb-27 15:33N 46°56' E 031°57'0 0.0
2015-Feb-27 14:33N 46°56' E 031°57'0 0.0
2015-Feb-27 13:33N 46°56' E 031°57'0 0.0
2015-Feb-27 12:33N 46°56' E 031°57'0 0.0
2015-Feb-27 11:34N 46°56' E 031°57'0 0.0
2015-Feb-27 10:34N 46°56' E 031°57'0 0.0
2015-Feb-27 09:33N 46°56' E 031°57'0 0.0
2015-Feb-27 08:33N 46°56' E 031°57'0 0.0
2015-Feb-27 07:33N 46°56' E 031°57'0 0.0
2015-Feb-27 06:33N 46°56' E 031°57'0 0.0
2015-Feb-27 05:33N 46°56' E 031°57'0 0.0
2015-Feb-27 04:33N 46°56' E 031°57'0 0.0
2015-Feb-27 03:33N 46°56' E 031°57'0 0.0
2015-Feb-27 02:33N 46°56' E 031°57'0 0.0
2015-Feb-27 01:33N 46°56' E 031°57'0 0.0
2015-Feb-27 00:33N 46°56' E 031°57'0 0.0
2015-Feb-26 23:33N 46°56' E 031°57'0 0.0
2015-Feb-26 22:33N 46°56' E 031°57'0 0.0
2015-Feb-26 21:34N 46°56' E 031°57'0 0.0
2015-Feb-26 20:34N 46°56' E 031°57'0 0.0
2015-Feb-26 19:33N 46°56' E 031°57'0 0.0
2015-Feb-26 18:33N 46°56' E 031°57'0 0.0
2015-Feb-26 17:33N 46°56' E 031°57'0 0.0
2015-Feb-26 16:33N 46°56' E 031°57'0 0.0
2015-Feb-26 15:34N 46°56' E 031°57'0 0.0
2015-Feb-26 14:33N 46°56' E 031°57'0 0.0
2015-Feb-26 13:33N 46°56' E 031°57'0 0.0
2015-Feb-26 12:33N 46°56' E 031°57'0 0.0
2015-Feb-26 11:33N 46°56' E 031°57'0 0.0
2015-Feb-26 10:33N 46°56' E 031°57'0 0.0
2015-Feb-26 09:34N 46°56' E 031°57'0 0.0
2015-Feb-26 08:33N 46°56' E 031°57'0 0.0
2015-Feb-26 07:33N 46°56' E 031°57'0 0.0
2015-Feb-26 06:33N 46°56' E 031°57'0 0.0
2015-Feb-26 05:33N 46°56' E 031°57'0 0.0
2015-Feb-26 04:33N 46°56' E 031°57'0 0.0
2015-Feb-26 03:33N 46°56' E 031°57'0 0.0
2015-Feb-26 02:33N 46°56' E 031°57'0 0.0
2015-Feb-26 01:34N 46°56' E 031°57'0 0.0
2015-Feb-26 00:33N 46°56' E 031°57'0 0.0
2015-Feb-25 23:33N 46°56' E 031°57'0 0.0
2015-Feb-25 22:33N 46°56' E 031°57'0 0.0
2015-Feb-25 21:33N 46°56' E 031°57'0 0.0
2015-Feb-25 20:34N 46°56' E 031°57'0 0.0
2015-Feb-25 19:33N 46°56' E 031°57'0 0.0
2015-Feb-25 18:33N 46°56' E 031°57'0 0.0
2015-Feb-25 17:33N 46°56' E 031°57'0 0.0
2015-Feb-25 16:33N 46°56' E 031°57'0 0.0
2015-Feb-25 15:33N 46°56' E 031°57'0 0.0
2015-Feb-25 14:34N 46°56' E 031°57'0 0.0
2015-Feb-25 13:34N 46°56' E 031°57'0 0.0
2015-Feb-25 12:33N 46°56' E 031°57'0 0.0
2015-Feb-25 11:33N 46°56' E 031°57'0 0.0
2015-Feb-25 10:33N 46°56' E 031°57'0 0.0
2015-Feb-25 09:33N 46°56' E 031°57'0 0.0
2015-Feb-25 08:34N 46°56' E 031°57'0 0.0
2015-Feb-25 07:34N 46°56' E 031°57'0 0.0
2015-Feb-25 06:33N 46°56' E 031°57'0 0.0
2015-Feb-25 05:33N 46°56' E 031°57'1 0.8
2015-Feb-25 04:33N 46°56' E 031°57'0 0.0
2015-Feb-25 03:33N 46°56' E 031°57'0 0.1
2015-Feb-25 02:33N 46°56' E 031°56'0 0.0
2015-Feb-25 01:33N 46°56' E 031°57'0 0.0
2015-Feb-25 00:33N 46°56' E 031°57'0 0.0
2015-Feb-24 23:33N 46°56' E 031°57'0 0.0
2015-Feb-24 22:34N 46°56' E 031°57'0 0.0
2015-Feb-24 21:33N 46°56' E 031°57'0 0.0
2015-Feb-24 20:33N 46°56' E 031°57'0 0.0
2015-Feb-24 19:33N 46°56' E 031°57'0 0.0
2015-Feb-24 18:33N 46°56' E 031°57'0 0.0
2015-Feb-24 17:33N 46°56' E 031°57'0 0.0
2015-Feb-24 16:34N 46°56' E 031°57'0 0.0
2015-Feb-24 15:34N 46°56' E 031°57'0 0.0
2015-Feb-24 14:33N 46°56' E 031°57'0 0.0
2015-Feb-24 13:34N 46°56' E 031°57'0 0.0
2015-Feb-24 12:34N 46°56' E 031°57'3 3.3
2015-Feb-24 11:34N 46°55' E 032°01'8 8.1
2015-Feb-24 10:34N 46°49' E 031°54'7 7.4
2015-Feb-24 09:34N 46°42' E 031°56'8 7.6
2015-Feb-24 08:33N 46°36' E 031°49'8 7.8
2015-Feb-24 07:33N 46°35' E 031°37'7 6.9
2015-Feb-24 06:32N 46°35' E 031°27'7 7.0
2015-Feb-24 05:33N 46°35' E 031°17'18 2.7
2015-Feb-23 23:04N 46°19' E 031°05'0 0.0
2015-Feb-23 22:12N 46°19' E 031°05'0 0.0
2015-Feb-23 21:24N 46°19' E 031°05'0 0.0
2015-Feb-23 15:07N 46°19' E 031°05'0 0.0
2015-Feb-23 04:14N 46°19' E 031°05'135 6.5
2015-Feb-22 07:30N 44°36' E 033°07'8 6.8
2015-Feb-22 06:21N 44°31' E 033°16'38 5.6
2015-Feb-21 23:33N 44°20' E 034°07'8 7.6
2015-Feb-21 22:33N 44°20' E 034°17'7 7.2
2015-Feb-21 21:34N 44°21' E 034°27'7 7.2
2015-Feb-21 20:33N 44°23' E 034°37'7 7.1
2015-Feb-21 19:33N 44°25' E 034°46'7 6.8
2015-Feb-21 18:33N 44°27' E 034°56'7 6.7
2015-Feb-21 17:33N 44°28' E 035°05'7 7.2
2015-Feb-21 16:33N 44°30' E 035°15'90 7.4
2015-Feb-21 04:24N 44°40' E 037°20'6 7.1
2015-Feb-21 03:33N 44°38' E 037°29'6 6.3
2015-Feb-21 02:33N 44°36' E 037°37'6 5.8
2015-Feb-21 01:33N 44°34' E 037°44'6 5.5
2015-Feb-21 00:33N 44°31' E 037°51'6 6.2
2015-Feb-20 23:33N 44°28' E 037°59'7 6.3
2015-Feb-20 22:24N 44°24' E 038°07'19 6.6
2015-Feb-20 19:33N 44°15' E 038°31'6 5.9
2015-Feb-20 18:32N 44°13' E 038°38'6 6.3
2015-Feb-20 17:33N 44°10' E 038°46'6 5.7
2015-Feb-20 16:33N 44°05' E 038°51'6 6.0
2015-Feb-20 15:33N 44°00' E 038°55'6 5.9
2015-Feb-20 14:33N 43°56' E 039°00'6 6.4
2015-Feb-20 13:33N 43°51' E 039°05'8 7.1
2015-Feb-20 12:28N 43°45' E 039°12'  
Track history (hours):
 
Tides and Currents Weather Stations Pressure Air Temp Water Temp Dewpoint Dewpoint Depression Visibility Wind Speed Wind Dir Waves Ship Positions

Nefterudovoz-29m

Last reported at 2015-Feb-28 00:32 UTC. Time now 2015-Feb-28 23:03 UTC.
Position N 46°35' E 031°26'.

Length 119 m; draft 2.5 m.

Type: Cargo ship. MMSI: 273345300.

Date/timePositionNaut miles runAvg speedWind from/ knotsBaromVisibWave heightAir tempDewpointWater temp
2015-Feb-28 00:32N 46°35' E 031°26'6 6.5
2015-Feb-27 23:33N 46°35' E 031°35'7 7.3
2015-Feb-27 22:33N 46°36' E 031°46'7 7.1
2015-Feb-27 21:33N 46°39' E 031°55'6 6.3
2015-Feb-27 20:33N 46°45' E 031°54'7 6.6
2015-Feb-27 19:34N 46°51' E 031°57'5 5.4
2015-Feb-27 18:33N 46°56' E 031°60'2 1.6
2015-Feb-27 17:33N 46°56' E 031°57'0 0.0
2015-Feb-27 16:33N 46°56' E 031°57'0 0.0
2015-Feb-27 15:33N 46°56' E 031°57'0 0.0
2015-Feb-27 14:33N 46°56' E 031°57'0 0.0
2015-Feb-27 13:33N 46°56' E 031°57'0 0.0
2015-Feb-27 12:33N 46°56' E 031°57'0 0.0
2015-Feb-27 11:34N 46°56' E 031°57'0 0.0
2015-Feb-27 10:34N 46°56' E 031°57'0 0.0
2015-Feb-27 09:33N 46°56' E 031°57'0 0.0
2015-Feb-27 08:33N 46°56' E 031°57'0 0.0
2015-Feb-27 07:33N 46°56' E 031°57'0 0.0
2015-Feb-27 06:33N 46°56' E 031°57'0 0.0
2015-Feb-27 05:33N 46°56' E 031°57'0 0.0
2015-Feb-27 04:33N 46°56' E 031°57'0 0.0
2015-Feb-27 03:33N 46°56' E 031°57'0 0.0
2015-Feb-27 02:33N 46°56' E 031°57'0 0.0
2015-Feb-27 01:33N 46°56' E 031°57'0 0.0
2015-Feb-27 00:33N 46°56' E 031°57'0 0.0
2015-Feb-26 23:33N 46°56' E 031°57'0 0.0
2015-Feb-26 22:33N 46°56' E 031°57'0 0.0
2015-Feb-26 21:34N 46°56' E 031°57'0 0.0
2015-Feb-26 20:34N 46°56' E 031°57'0 0.0
2015-Feb-26 19:33N 46°56' E 031°57'0 0.0
2015-Feb-26 18:33N 46°56' E 031°57'0 0.0
2015-Feb-26 17:33N 46°56' E 031°57'0 0.0
2015-Feb-26 16:33N 46°56' E 031°57'0 0.0
2015-Feb-26 15:34N 46°56' E 031°57'0 0.0
2015-Feb-26 14:33N 46°56' E 031°57'0 0.0
2015-Feb-26 13:33N 46°56' E 031°57'0 0.0
2015-Feb-26 12:33N 46°56' E 031°57'0 0.0
2015-Feb-26 11:33N 46°56' E 031°57'0 0.0
2015-Feb-26 10:33N 46°56' E 031°57'0 0.0
2015-Feb-26 09:34N 46°56' E 031°57'0 0.0
2015-Feb-26 08:33N 46°56' E 031°57'0 0.0
2015-Feb-26 07:33N 46°56' E 031°57'0 0.0
2015-Feb-26 06:33N 46°56' E 031°57'0 0.0
2015-Feb-26 05:33N 46°56' E 031°57'0 0.0
2015-Feb-26 04:33N 46°56' E 031°57'0 0.0
2015-Feb-26 03:33N 46°56' E 031°57'0 0.0
2015-Feb-26 02:33N 46°56' E 031°57'0 0.0
2015-Feb-26 01:34N 46°56' E 031°57'0 0.0
2015-Feb-26 00:33N 46°56' E 031°57'0 0.0
2015-Feb-25 23:33N 46°56' E 031°57'0 0.0
2015-Feb-25 22:33N 46°56' E 031°57'0 0.0
2015-Feb-25 21:33N 46°56' E 031°57'0 0.0
2015-Feb-25 20:34N 46°56' E 031°57'0 0.0
2015-Feb-25 19:33N 46°56' E 031°57'0 0.0
2015-Feb-25 18:33N 46°56' E 031°57'0 0.0
2015-Feb-25 17:33N 46°56' E 031°57'0 0.0
2015-Feb-25 16:33N 46°56' E 031°57'0 0.0
2015-Feb-25 15:33N 46°56' E 031°57'0 0.0
2015-Feb-25 14:34N 46°56' E 031°57'0 0.0
2015-Feb-25 13:34N 46°56' E 031°57'0 0.0
2015-Feb-25 12:33N 46°56' E 031°57'0 0.0
2015-Feb-25 11:33N 46°56' E 031°57'0 0.0
2015-Feb-25 10:33N 46°56' E 031°57'0 0.0
2015-Feb-25 09:33N 46°56' E 031°57'0 0.0
2015-Feb-25 08:34N 46°56' E 031°57'0 0.0
2015-Feb-25 07:34N 46°56' E 031°57'0 0.0
2015-Feb-25 06:33N 46°56' E 031°57'0 0.0
2015-Feb-25 05:33N 46°56' E 031°57'1 0.8
2015-Feb-25 04:33N 46°56' E 031°57'0 0.0
2015-Feb-25 03:33N 46°56' E 031°57'0 0.1
2015-Feb-25 02:33N 46°56' E 031°56'0 0.0
2015-Feb-25 01:33N 46°56' E 031°57'0 0.0
2015-Feb-25 00:33N 46°56' E 031°57'0 0.0
2015-Feb-24 23:33N 46°56' E 031°57'0 0.0
2015-Feb-24 22:34N 46°56' E 031°57'0 0.0
2015-Feb-24 21:33N 46°56' E 031°57'0 0.0
2015-Feb-24 20:33N 46°56' E 031°57'0 0.0
2015-Feb-24 19:33N 46°56' E 031°57'0 0.0
2015-Feb-24 18:33N 46°56' E 031°57'0 0.0
2015-Feb-24 17:33N 46°56' E 031°57'0 0.0
2015-Feb-24 16:34N 46°56' E 031°57'0 0.0
2015-Feb-24 15:34N 46°56' E 031°57'0 0.0
2015-Feb-24 14:33N 46°56' E 031°57'0 0.0
2015-Feb-24 13:34N 46°56' E 031°57'0 0.0
2015-Feb-24 12:34N 46°56' E 031°57'3 3.3
2015-Feb-24 11:34N 46°55' E 032°01'8 8.1
2015-Feb-24 10:34N 46°49' E 031°54'7 7.4
2015-Feb-24 09:34N 46°42' E 031°56'8 7.6
2015-Feb-24 08:33N 46°36' E 031°49'8 7.8
2015-Feb-24 07:33N 46°35' E 031°37'7 6.9
2015-Feb-24 06:32N 46°35' E 031°27'7 7.0
2015-Feb-24 05:33N 46°35' E 031°17'18 2.7
2015-Feb-23 23:04N 46°19' E 031°05'0 0.0
2015-Feb-23 22:12N 46°19' E 031°05'0 0.0
2015-Feb-23 21:24N 46°19' E 031°05'0 0.0
2015-Feb-23 15:07N 46°19' E 031°05'0 0.0
2015-Feb-23 04:14N 46°19' E 031°05'135 6.5
2015-Feb-22 07:30N 44°36' E 033°07'8 6.8
2015-Feb-22 06:21N 44°31' E 033°16'38 5.6
2015-Feb-21 23:33N 44°20' E 034°07'8 7.6
2015-Feb-21 22:33N 44°20' E 034°17'7 7.2
2015-Feb-21 21:34N 44°21' E 034°27'7 7.2
2015-Feb-21 20:33N 44°23' E 034°37'7 7.1
2015-Feb-21 19:33N 44°25' E 034°46'7 6.8
2015-Feb-21 18:33N 44°27' E 034°56'7 6.7
2015-Feb-21 17:33N 44°28' E 035°05'7 7.2
2015-Feb-21 16:33N 44°30' E 035°15'90 7.4
2015-Feb-21 04:24N 44°40' E 037°20'6 7.1
2015-Feb-21 03:33N 44°38' E 037°29'6 6.3
2015-Feb-21 02:33N 44°36' E 037°37'6 5.8
2015-Feb-21 01:33N 44°34' E 037°44'6 5.5
2015-Feb-21 00:33N 44°31' E 037°51'6 6.2
2015-Feb-20 23:33N 44°28' E 037°59'7 6.3
2015-Feb-20 22:24N 44°24' E 038°07'19 6.6
2015-Feb-20 19:33N 44°15' E 038°31'6 5.9
2015-Feb-20 18:32N 44°13' E 038°38'6 6.3
2015-Feb-20 17:33N 44°10' E 038°46'6 5.7
2015-Feb-20 16:33N 44°05' E 038°51'6 6.0
2015-Feb-20 15:33N 44°00' E 038°55'6 5.9
2015-Feb-20 14:33N 43°56' E 039°00'6 6.4
2015-Feb-20 13:33N 43°51' E 039°05'8 7.1
2015-Feb-20 12:28N 43°45' E 039°12'  

Dump ship's entire track history